sensor_id;sensor_type;location;lat;lon;timestamp;temperature;humidity
9837;DHT22;4957;51.412;6.724;2024-03-07T00:00:34;8.00;99.90
9837;DHT22;4957;51.412;6.724;2024-03-07T00:03:00;8.00;99.90
9837;DHT22;4957;51.412;6.724;2024-03-07T00:05:26;7.90;99.90
9837;DHT22;4957;51.412;6.724;2024-03-07T00:07:52;7.90;99.90
9837;DHT22;4957;51.412;6.724;2024-03-07T00:10:18;7.90;99.90
9837;DHT22;4957;51.412;6.724;2024-03-07T00:12:44;7.80;99.90
9837;DHT22;4957;51.412;6.724;2024-03-07T00:15:11;7.80;99.90
9837;DHT22;4957;51.412;6.724;2024-03-07T00:17:37;7.80;99.90
9837;DHT22;4957;51.412;6.724;2024-03-07T00:20:04;7.80;99.90
9837;DHT22;4957;51.412;6.724;2024-03-07T00:22:34;7.80;99.90
9837;DHT22;4957;51.412;6.724;2024-03-07T00:25:01;7.80;99.90
9837;DHT22;4957;51.412;6.724;2024-03-07T00:27:27;7.80;99.90
9837;DHT22;4957;51.412;6.724;2024-03-07T00:29:53;7.70;99.90
9837;DHT22;4957;51.412;6.724;2024-03-07T00:32:21;7.70;99.90
9837;DHT22;4957;51.412;6.724;2024-03-07T00:34:48;7.70;99.90
9837;DHT22;4957;51.412;6.724;2024-03-07T00:37:14;7.70;99.90
9837;DHT22;4957;51.412;6.724;2024-03-07T00:39:40;7.60;99.90
9837;DHT22;4957;51.412;6.724;2024-03-07T00:42:07;7.60;99.90
9837;DHT22;4957;51.412;6.724;2024-03-07T00:44:33;7.60;99.90
9837;DHT22;4957;51.412;6.724;2024-03-07T00:47:00;7.60;99.90
9837;DHT22;4957;51.412;6.724;2024-03-07T00:49:25;7.60;99.90
9837;DHT22;4957;51.412;6.724;2024-03-07T00:51:51;7.50;99.90
9837;DHT22;4957;51.412;6.724;2024-03-07T00:54:17;7.50;99.90
9837;DHT22;4957;51.412;6.724;2024-03-07T00:56:43;7.50;99.90
9837;DHT22;4957;51.412;6.724;2024-03-07T00:59:08;7.50;99.90
9837;DHT22;4957;51.412;6.724;2024-03-07T01:01:34;7.50;99.90
9837;DHT22;4957;51.412;6.724;2024-03-07T01:04:02;7.50;99.90
9837;DHT22;4957;51.412;6.724;2024-03-07T01:06:28;7.50;99.90
9837;DHT22;4957;51.412;6.724;2024-03-07T01:08:54;7.40;99.90
9837;DHT22;4957;51.412;6.724;2024-03-07T01:11:20;7.40;99.90
9837;DHT22;4957;51.412;6.724;2024-03-07T01:13:45;7.40;99.90
9837;DHT22;4957;51.412;6.724;2024-03-07T01:16:11;7.30;99.90
9837;DHT22;4957;51.412;6.724;2024-03-07T01:18:37;7.30;99.90
9837;DHT22;4957;51.412;6.724;2024-03-07T01:21:04;7.30;99.90
9837;DHT22;4957;51.412;6.724;2024-03-07T01:23:31;7.30;99.90
9837;DHT22;4957;51.412;6.724;2024-03-07T01:25:57;7.30;99.90
9837;DHT22;4957;51.412;6.724;2024-03-07T01:28:24;7.30;99.90
9837;DHT22;4957;51.412;6.724;2024-03-07T01:30:51;7.30;99.90
9837;DHT22;4957;51.412;6.724;2024-03-07T01:33:21;7.20;99.90
9837;DHT22;4957;51.412;6.724;2024-03-07T01:35:47;7.20;99.90
9837;DHT22;4957;51.412;6.724;2024-03-07T01:38:13;7.20;99.90
9837;DHT22;4957;51.412;6.724;2024-03-07T01:40:45;7.20;99.90
9837;DHT22;4957;51.412;6.724;2024-03-07T01:43:11;7.20;99.90
9837;DHT22;4957;51.412;6.724;2024-03-07T01:45:37;7.20;99.90
9837;DHT22;4957;51.412;6.724;2024-03-07T01:48:09;7.20;99.90
9837;DHT22;4957;51.412;6.724;2024-03-07T01:50:36;7.10;99.90
9837;DHT22;4957;51.412;6.724;2024-03-07T01:53:10;7.10;99.90
9837;DHT22;4957;51.412;6.724;2024-03-07T01:55:37;7.10;99.90
9837;DHT22;4957;51.412;6.724;2024-03-07T01:58:05;7.10;99.90
9837;DHT22;4957;51.412;6.724;2024-03-07T02:00:31;7.10;99.90
9837;DHT22;4957;51.412;6.724;2024-03-07T02:02:57;7.10;99.90
9837;DHT22;4957;51.412;6.724;2024-03-07T02:05:23;7.10;99.90
9837;DHT22;4957;51.412;6.724;2024-03-07T02:07:50;7.10;99.90
9837;DHT22;4957;51.412;6.724;2024-03-07T02:10:16;7.00;99.90
9837;DHT22;4957;51.412;6.724;2024-03-07T02:12:43;7.00;99.90
9837;DHT22;4957;51.412;6.724;2024-03-07T02:15:09;7.00;99.90
9837;DHT22;4957;51.412;6.724;2024-03-07T02:17:35;7.00;99.90
9837;DHT22;4957;51.412;6.724;2024-03-07T02:20:01;7.00;99.90
9837;DHT22;4957;51.412;6.724;2024-03-07T02:22:29;7.00;99.90
9837;DHT22;4957;51.412;6.724;2024-03-07T02:24:55;7.00;99.90
9837;DHT22;4957;51.412;6.724;2024-03-07T02:27:20;7.00;99.90
9837;DHT22;4957;51.412;6.724;2024-03-07T02:29:46;7.00;99.90
9837;DHT22;4957;51.412;6.724;2024-03-07T02:32:12;7.00;99.90
9837;DHT22;4957;51.412;6.724;2024-03-07T02:34:38;6.90;99.90
9837;DHT22;4957;51.412;6.724;2024-03-07T02:37:04;6.90;99.90
9837;DHT22;4957;51.412;6.724;2024-03-07T02:39:30;6.90;99.90
9837;DHT22;4957;51.412;6.724;2024-03-07T02:41:56;6.90;99.90
9837;DHT22;4957;51.412;6.724;2024-03-07T02:44:21;6.90;99.90
9837;DHT22;4957;51.412;6.724;2024-03-07T02:46:47;6.90;99.90
9837;DHT22;4957;51.412;6.724;2024-03-07T02:49:15;6.80;99.90
9837;DHT22;4957;51.412;6.724;2024-03-07T02:51:41;6.80;99.90
9837;DHT22;4957;51.412;6.724;2024-03-07T02:54:09;6.80;99.90
9837;DHT22;4957;51.412;6.724;2024-03-07T02:56:34;6.70;99.90
9837;DHT22;4957;51.412;6.724;2024-03-07T02:59:00;6.70;99.90
9837;DHT22;4957;51.412;6.724;2024-03-07T03:01:26;6.70;99.90
9837;DHT22;4957;51.412;6.724;2024-03-07T03:03:52;6.70;99.90
9837;DHT22;4957;51.412;6.724;2024-03-07T03:06:18;6.70;99.90
9837;DHT22;4957;51.412;6.724;2024-03-07T03:08:46;6.70;99.90
9837;DHT22;4957;51.412;6.724;2024-03-07T03:11:12;6.70;99.90
9837;DHT22;4957;51.412;6.724;2024-03-07T03:13:42;6.60;99.90
9837;DHT22;4957;51.412;6.724;2024-03-07T03:16:08;6.60;99.90
9837;DHT22;4957;51.412;6.724;2024-03-07T03:18:35;6.60;99.90
9837;DHT22;4957;51.412;6.724;2024-03-07T03:21:01;6.60;99.90
9837;DHT22;4957;51.412;6.724;2024-03-07T03:23:28;6.60;99.90
9837;DHT22;4957;51.412;6.724;2024-03-07T03:25:54;6.60;99.90
9837;DHT22;4957;51.412;6.724;2024-03-07T03:28:21;6.60;99.90
9837;DHT22;4957;51.412;6.724;2024-03-07T03:30:47;6.60;99.90
9837;DHT22;4957;51.412;6.724;2024-03-07T03:33:13;6.60;99.90
9837;DHT22;4957;51.412;6.724;2024-03-07T03:35:39;6.60;99.90
9837;DHT22;4957;51.412;6.724;2024-03-07T03:38:05;6.60;99.90
9837;DHT22;4957;51.412;6.724;2024-03-07T03:40:32;6.60;99.90
9837;DHT22;4957;51.412;6.724;2024-03-07T03:42:58;6.60;99.90
9837;DHT22;4957;51.412;6.724;2024-03-07T03:45:24;6.60;99.90
9837;DHT22;4957;51.412;6.724;2024-03-07T03:47:51;6.60;99.90
9837;DHT22;4957;51.412;6.724;2024-03-07T03:50:17;6.50;99.90
9837;DHT22;4957;51.412;6.724;2024-03-07T03:52:43;6.50;99.90
9837;DHT22;4957;51.412;6.724;2024-03-07T03:55:09;6.50;99.90
9837;DHT22;4957;51.412;6.724;2024-03-07T03:57:36;6.50;99.90
9837;DHT22;4957;51.412;6.724;2024-03-07T04:00:06;6.50;99.90
9837;DHT22;4957;51.412;6.724;2024-03-07T04:02:40;6.40;99.90
9837;DHT22;4957;51.412;6.724;2024-03-07T04:05:06;6.40;99.90
9837;DHT22;4957;51.412;6.724;2024-03-07T04:07:33;6.30;99.90
9837;DHT22;4957;51.412;6.724;2024-03-07T04:09:58;6.30;99.90
9837;DHT22;4957;51.412;6.724;2024-03-07T04:12:24;6.30;99.90
9837;DHT22;4957;51.412;6.724;2024-03-07T04:14:53;6.30;99.90
9837;DHT22;4957;51.412;6.724;2024-03-07T04:17:21;6.20;99.90
9837;DHT22;4957;51.412;6.724;2024-03-07T04:19:47;6.20;99.90
9837;DHT22;4957;51.412;6.724;2024-03-07T04:22:13;6.20;99.90
9837;DHT22;4957;51.412;6.724;2024-03-07T04:24:39;6.10;99.90
9837;DHT22;4957;51.412;6.724;2024-03-07T04:27:06;6.10;99.90
9837;DHT22;4957;51.412;6.724;2024-03-07T04:29:32;6.00;99.90
9837;DHT22;4957;51.412;6.724;2024-03-07T04:31:59;6.00;99.90
9837;DHT22;4957;51.412;6.724;2024-03-07T04:34:25;6.00;99.90
9837;DHT22;4957;51.412;6.724;2024-03-07T04:36:51;6.00;99.90
9837;DHT22;4957;51.412;6.724;2024-03-07T04:39:16;6.00;99.90
9837;DHT22;4957;51.412;6.724;2024-03-07T04:42:04;6.00;99.90
9837;DHT22;4957;51.412;6.724;2024-03-07T04:44:32;6.10;99.90
9837;DHT22;4957;51.412;6.724;2024-03-07T04:46:59;6.00;99.90
9837;DHT22;4957;51.412;6.724;2024-03-07T04:49:27;6.00;99.90
9837;DHT22;4957;51.412;6.724;2024-03-07T04:51:55;6.00;99.90
9837;DHT22;4957;51.412;6.724;2024-03-07T04:54:22;5.90;99.90
9837;DHT22;4957;51.412;6.724;2024-03-07T04:56:49;5.90;99.90
9837;DHT22;4957;51.412;6.724;2024-03-07T04:59:16;5.90;99.90
9837;DHT22;4957;51.412;6.724;2024-03-07T05:01:43;5.90;99.90
9837;DHT22;4957;51.412;6.724;2024-03-07T05:04:09;5.90;99.90
9837;DHT22;4957;51.412;6.724;2024-03-07T05:06:35;5.90;99.90
9837;DHT22;4957;51.412;6.724;2024-03-07T05:09:02;5.90;99.90
9837;DHT22;4957;51.412;6.724;2024-03-07T05:11:32;5.90;99.90
9837;DHT22;4957;51.412;6.724;2024-03-07T05:13:58;5.90;99.90
9837;DHT22;4957;51.412;6.724;2024-03-07T05:16:25;5.90;99.90
9837;DHT22;4957;51.412;6.724;2024-03-07T05:18:51;5.80;99.90
9837;DHT22;4957;51.412;6.724;2024-03-07T05:21:18;5.80;99.90
9837;DHT22;4957;51.412;6.724;2024-03-07T05:24:01;5.90;99.90
9837;DHT22;4957;51.412;6.724;2024-03-07T05:26:28;5.80;99.90
9837;DHT22;4957;51.412;6.724;2024-03-07T05:29:00;5.80;99.90
9837;DHT22;4957;51.412;6.724;2024-03-07T05:31:28;5.80;99.90
9837;DHT22;4957;51.412;6.724;2024-03-07T05:33:54;5.80;99.90
9837;DHT22;4957;51.412;6.724;2024-03-07T05:36:19;5.80;99.90
9837;DHT22;4957;51.412;6.724;2024-03-07T05:38:45;5.80;99.90
9837;DHT22;4957;51.412;6.724;2024-03-07T05:41:11;5.70;99.90
9837;DHT22;4957;51.412;6.724;2024-03-07T05:43:39;5.70;99.90
9837;DHT22;4957;51.412;6.724;2024-03-07T05:46:05;5.70;99.90
9837;DHT22;4957;51.412;6.724;2024-03-07T05:48:33;5.70;99.90
9837;DHT22;4957;51.412;6.724;2024-03-07T05:50:59;5.70;99.90
9837;DHT22;4957;51.412;6.724;2024-03-07T05:53:25;5.70;99.90
9837;DHT22;4957;51.412;6.724;2024-03-07T05:55:50;5.60;99.90
9837;DHT22;4957;51.412;6.724;2024-03-07T05:58:16;5.60;99.90
9837;DHT22;4957;51.412;6.724;2024-03-07T06:00:46;5.60;99.90
9837;DHT22;4957;51.412;6.724;2024-03-07T06:03:20;5.60;99.90
9837;DHT22;4957;51.412;6.724;2024-03-07T06:05:50;5.50;99.90
9837;DHT22;4957;51.412;6.724;2024-03-07T06:08:16;5.50;99.90
9837;DHT22;4957;51.412;6.724;2024-03-07T06:10:43;5.50;99.90
9837;DHT22;4957;51.412;6.724;2024-03-07T06:13:10;5.50;99.90
9837;DHT22;4957;51.412;6.724;2024-03-07T06:15:40;5.50;99.90
9837;DHT22;4957;51.412;6.724;2024-03-07T06:18:06;5.50;99.90
9837;DHT22;4957;51.412;6.724;2024-03-07T06:20:34;5.50;99.90
9837;DHT22;4957;51.412;6.724;2024-03-07T06:23:01;5.50;99.90
9837;DHT22;4957;51.412;6.724;2024-03-07T06:25:34;5.50;99.90
9837;DHT22;4957;51.412;6.724;2024-03-07T06:28:03;5.50;99.90
9837;DHT22;4957;51.412;6.724;2024-03-07T06:30:41;5.50;99.90
9837;DHT22;4957;51.412;6.724;2024-03-07T06:33:07;5.50;99.90
9837;DHT22;4957;51.412;6.724;2024-03-07T06:35:33;5.50;99.90
9837;DHT22;4957;51.412;6.724;2024-03-07T06:38:03;5.50;99.90
9837;DHT22;4957;51.412;6.724;2024-03-07T06:40:29;5.50;99.90
9837;DHT22;4957;51.412;6.724;2024-03-07T06:42:55;5.50;99.90
9837;DHT22;4957;51.412;6.724;2024-03-07T06:45:21;5.50;99.90
9837;DHT22;4957;51.412;6.724;2024-03-07T06:47:46;5.50;99.90
9837;DHT22;4957;51.412;6.724;2024-03-07T06:50:13;5.50;99.90
9837;DHT22;4957;51.412;6.724;2024-03-07T06:52:47;5.50;99.90
9837;DHT22;4957;51.412;6.724;2024-03-07T06:55:15;5.50;99.90
9837;DHT22;4957;51.412;6.724;2024-03-07T06:57:45;5.50;99.90
9837;DHT22;4957;51.412;6.724;2024-03-07T07:00:15;5.50;99.90
9837;DHT22;4957;51.412;6.724;2024-03-07T07:02:47;5.50;99.90
9837;DHT22;4957;51.412;6.724;2024-03-07T07:05:14;5.60;99.90
9837;DHT22;4957;51.412;6.724;2024-03-07T07:07:44;5.60;99.90
9837;DHT22;4957;51.412;6.724;2024-03-07T07:10:10;5.60;99.90
9837;DHT22;4957;51.412;6.724;2024-03-07T07:12:49;5.70;99.90
9837;DHT22;4957;51.412;6.724;2024-03-07T07:15:18;5.80;99.90
9837;DHT22;4957;51.412;6.724;2024-03-07T07:17:46;5.80;99.90
9837;DHT22;4957;51.412;6.724;2024-03-07T07:20:13;5.90;99.90
9837;DHT22;4957;51.412;6.724;2024-03-07T07:22:42;5.90;99.90
9837;DHT22;4957;51.412;6.724;2024-03-07T07:25:09;6.00;99.90
9837;DHT22;4957;51.412;6.724;2024-03-07T07:27:49;6.10;99.90
9837;DHT22;4957;51.412;6.724;2024-03-07T07:30:16;6.10;99.90
9837;DHT22;4957;51.412;6.724;2024-03-07T07:32:43;6.20;99.90
9837;DHT22;4957;51.412;6.724;2024-03-07T07:35:10;6.30;99.90
9837;DHT22;4957;51.412;6.724;2024-03-07T07:37:40;6.40;99.90
9837;DHT22;4957;51.412;6.724;2024-03-07T07:40:07;6.40;99.90
9837;DHT22;4957;51.412;6.724;2024-03-07T07:42:38;6.50;99.90
9837;DHT22;4957;51.412;6.724;2024-03-07T07:45:15;6.50;99.90
9837;DHT22;4957;51.412;6.724;2024-03-07T07:47:42;6.60;99.90
9837;DHT22;4957;51.412;6.724;2024-03-07T07:50:08;6.70;99.90
9837;DHT22;4957;51.412;6.724;2024-03-07T07:52:54;6.80;99.90
9837;DHT22;4957;51.412;6.724;2024-03-07T07:55:22;6.90;99.90
9837;DHT22;4957;51.412;6.724;2024-03-07T07:57:53;7.00;99.90
9837;DHT22;4957;51.412;6.724;2024-03-07T08:00:20;7.20;99.90
9837;DHT22;4957;51.412;6.724;2024-03-07T08:05:18;7.40;99.90
9837;DHT22;4957;51.412;6.724;2024-03-07T08:07:48;7.50;99.90
9837;DHT22;4957;51.412;6.724;2024-03-07T08:10:14;7.60;99.90
9837;DHT22;4957;51.412;6.724;2024-03-07T08:12:41;7.60;99.90
9837;DHT22;4957;51.412;6.724;2024-03-07T08:15:12;7.70;99.90
9837;DHT22;4957;51.412;6.724;2024-03-07T08:17:45;7.80;99.90
9837;DHT22;4957;51.412;6.724;2024-03-07T08:20:13;7.90;99.90
9837;DHT22;4957;51.412;6.724;2024-03-07T08:22:39;8.00;99.90
9837;DHT22;4957;51.412;6.724;2024-03-07T08:25:12;8.00;99.90
9837;DHT22;4957;51.412;6.724;2024-03-07T08:27:39;8.00;99.90
9837;DHT22;4957;51.412;6.724;2024-03-07T08:30:06;8.00;99.90
9837;DHT22;4957;51.412;6.724;2024-03-07T08:32:43;8.10;99.90
9837;DHT22;4957;51.412;6.724;2024-03-07T08:35:09;8.20;99.90
9837;DHT22;4957;51.412;6.724;2024-03-07T08:40:03;8.40;99.90
9837;DHT22;4957;51.412;6.724;2024-03-07T08:42:48;8.50;99.90
9837;DHT22;4957;51.412;6.724;2024-03-07T08:45:16;8.50;99.90
9837;DHT22;4957;51.412;6.724;2024-03-07T08:47:45;8.60;99.90
9837;DHT22;4957;51.412;6.724;2024-03-07T08:50:12;8.70;99.90
9837;DHT22;4957;51.412;6.724;2024-03-07T08:52:38;8.70;99.90
9837;DHT22;4957;51.412;6.724;2024-03-07T08:55:09;8.70;99.90
9837;DHT22;4957;51.412;6.724;2024-03-07T08:57:38;8.80;99.90
9837;DHT22;4957;51.412;6.724;2024-03-07T09:00:08;8.90;99.90
9837;DHT22;4957;51.412;6.724;2024-03-07T09:02:35;9.00;99.90
9837;DHT22;4957;51.412;6.724;2024-03-07T09:05:05;9.00;99.90
9837;DHT22;4957;51.412;6.724;2024-03-07T09:07:31;9.10;99.90
9837;DHT22;4957;51.412;6.724;2024-03-07T09:09:57;9.20;99.90
9837;DHT22;4957;51.412;6.724;2024-03-07T09:12:23;9.20;99.90
9837;DHT22;4957;51.412;6.724;2024-03-07T09:14:51;9.30;99.90
9837;DHT22;4957;51.412;6.724;2024-03-07T09:17:18;9.30;99.90
9837;DHT22;4957;51.412;6.724;2024-03-07T09:19:43;9.40;99.90
9837;DHT22;4957;51.412;6.724;2024-03-07T09:22:09;9.40;99.90
9837;DHT22;4957;51.412;6.724;2024-03-07T09:24:35;9.40;99.90
9837;DHT22;4957;51.412;6.724;2024-03-07T09:27:03;9.50;99.90
9837;DHT22;4957;51.412;6.724;2024-03-07T09:29:30;9.60;99.90
9837;DHT22;4957;51.412;6.724;2024-03-07T09:31:56;9.70;99.90
9837;DHT22;4957;51.412;6.724;2024-03-07T09:34:23;9.80;99.90
9837;DHT22;4957;51.412;6.724;2024-03-07T09:36:50;9.90;99.90
9837;DHT22;4957;51.412;6.724;2024-03-07T09:39:16;10.00;99.90
9837;DHT22;4957;51.412;6.724;2024-03-07T09:41:43;10.10;99.90
9837;DHT22;4957;51.412;6.724;2024-03-07T09:44:09;10.20;99.90
9837;DHT22;4957;51.412;6.724;2024-03-07T09:46:38;10.50;99.90
9837;DHT22;4957;51.412;6.724;2024-03-07T09:49:05;10.70;99.90
9837;DHT22;4957;51.412;6.724;2024-03-07T09:51:35;10.80;99.90
9837;DHT22;4957;51.412;6.724;2024-03-07T09:54:01;10.90;99.90
9837;DHT22;4957;51.412;6.724;2024-03-07T09:56:28;11.00;99.90
9837;DHT22;4957;51.412;6.724;2024-03-07T09:58:58;11.10;99.90
9837;DHT22;4957;51.412;6.724;2024-03-07T10:01:28;11.20;99.90
9837;DHT22;4957;51.412;6.724;2024-03-07T10:04:01;11.30;99.90
9837;DHT22;4957;51.412;6.724;2024-03-07T10:06:36;11.30;99.90
9837;DHT22;4957;51.412;6.724;2024-03-07T10:09:02;11.30;99.90
9837;DHT22;4957;51.412;6.724;2024-03-07T10:11:29;11.40;99.90
9837;DHT22;4957;51.412;6.724;2024-03-07T10:13:55;11.40;99.90
9837;DHT22;4957;51.412;6.724;2024-03-07T10:16:21;11.60;99.90
9837;DHT22;4957;51.412;6.724;2024-03-07T10:18:46;11.60;99.90
9837;DHT22;4957;51.412;6.724;2024-03-07T10:21:13;11.50;99.90
9837;DHT22;4957;51.412;6.724;2024-03-07T10:23:39;11.60;99.90
9837;DHT22;4957;51.412;6.724;2024-03-07T10:26:06;11.70;99.90
9837;DHT22;4957;51.412;6.724;2024-03-07T10:28:32;11.80;99.90
9837;DHT22;4957;51.412;6.724;2024-03-07T10:30:59;11.70;99.90
9837;DHT22;4957;51.412;6.724;2024-03-07T10:33:29;11.70;99.90
9837;DHT22;4957;51.412;6.724;2024-03-07T10:35:59;11.70;99.90
9837;DHT22;4957;51.412;6.724;2024-03-07T10:38:25;11.70;99.90
9837;DHT22;4957;51.412;6.724;2024-03-07T10:40:53;11.80;99.90
9837;DHT22;4957;51.412;6.724;2024-03-07T10:43:21;11.80;99.90
9837;DHT22;4957;51.412;6.724;2024-03-07T10:45:50;11.80;99.90
9837;DHT22;4957;51.412;6.724;2024-03-07T10:48:19;11.80;99.90
9837;DHT22;4957;51.412;6.724;2024-03-07T10:50:54;11.80;99.90
9837;DHT22;4957;51.412;6.724;2024-03-07T10:53:49;11.80;99.90
9837;DHT22;4957;51.412;6.724;2024-03-07T10:59:01;11.90;99.90
9837;DHT22;4957;51.412;6.724;2024-03-07T11:01:35;11.90;99.90
9837;DHT22;4957;51.412;6.724;2024-03-07T11:04:04;11.90;99.90
9837;DHT22;4957;51.412;6.724;2024-03-07T11:06:34;12.00;99.90
9837;DHT22;4957;51.412;6.724;2024-03-07T11:09:01;12.00;99.90
9837;DHT22;4957;51.412;6.724;2024-03-07T11:11:29;12.10;99.90
9837;DHT22;4957;51.412;6.724;2024-03-07T11:13:55;12.10;99.90
9837;DHT22;4957;51.412;6.724;2024-03-07T11:16:25;12.20;99.90
9837;DHT22;4957;51.412;6.724;2024-03-07T11:19:19;12.20;99.90
9837;DHT22;4957;51.412;6.724;2024-03-07T11:21:49;12.20;99.90
9837;DHT22;4957;51.412;6.724;2024-03-07T11:24:28;12.20;99.90
9837;DHT22;4957;51.412;6.724;2024-03-07T11:26:56;12.20;99.90
9837;DHT22;4957;51.412;6.724;2024-03-07T11:32:10;12.30;99.90
9837;DHT22;4957;51.412;6.724;2024-03-07T11:34:38;12.20;99.90
9837;DHT22;4957;51.412;6.724;2024-03-07T11:37:07;12.30;99.90
9837;DHT22;4957;51.412;6.724;2024-03-07T11:39:43;12.40;99.90
9837;DHT22;4957;51.412;6.724;2024-03-07T11:42:25;12.40;99.90
9837;DHT22;4957;51.412;6.724;2024-03-07T11:44:51;12.40;99.90
9837;DHT22;4957;51.412;6.724;2024-03-07T11:47:17;12.50;99.90
9837;DHT22;4957;51.412;6.724;2024-03-07T11:49:47;12.60;99.90
9837;DHT22;4957;51.412;6.724;2024-03-07T11:52:18;12.70;99.90
9837;DHT22;4957;51.412;6.724;2024-03-07T11:54:44;12.70;99.90
9837;DHT22;4957;51.412;6.724;2024-03-07T11:57:17;12.60;99.90
9837;DHT22;4957;51.412;6.724;2024-03-07T11:59:45;12.60;99.90
9837;DHT22;4957;51.412;6.724;2024-03-07T12:02:13;12.60;99.90
9837;DHT22;4957;51.412;6.724;2024-03-07T12:04:43;12.60;99.90
9837;DHT22;4957;51.412;6.724;2024-03-07T12:07:09;12.60;99.90
9837;DHT22;4957;51.412;6.724;2024-03-07T12:09:38;12.60;99.90
9837;DHT22;4957;51.412;6.724;2024-03-07T12:12:05;12.60;99.90
9837;DHT22;4957;51.412;6.724;2024-03-07T12:14:31;12.60;99.90
9837;DHT22;4957;51.412;6.724;2024-03-07T12:17:02;12.60;99.90
9837;DHT22;4957;51.412;6.724;2024-03-07T12:19:30;12.50;99.90
9837;DHT22;4957;51.412;6.724;2024-03-07T12:22:00;12.60;99.90
9837;DHT22;4957;51.412;6.724;2024-03-07T12:24:27;12.60;99.90
9837;DHT22;4957;51.412;6.724;2024-03-07T12:26:52;12.60;99.90
9837;DHT22;4957;51.412;6.724;2024-03-07T12:29:25;12.60;99.90
9837;DHT22;4957;51.412;6.724;2024-03-07T12:31:51;12.60;99.90
9837;DHT22;4957;51.412;6.724;2024-03-07T12:34:17;12.60;99.90
9837;DHT22;4957;51.412;6.724;2024-03-07T12:36:42;12.60;99.90
9837;DHT22;4957;51.412;6.724;2024-03-07T12:39:24;12.50;99.90
9837;DHT22;4957;51.412;6.724;2024-03-07T12:41:55;12.50;99.90
9837;DHT22;4957;51.412;6.724;2024-03-07T12:44:21;12.60;99.90
9837;DHT22;4957;51.412;6.724;2024-03-07T12:46:48;12.60;99.90
9837;DHT22;4957;51.412;6.724;2024-03-07T12:49:17;12.60;99.90
9837;DHT22;4957;51.412;6.724;2024-03-07T12:51:42;12.60;99.90
9837;DHT22;4957;51.412;6.724;2024-03-07T12:54:08;12.50;99.90
9837;DHT22;4957;51.412;6.724;2024-03-07T12:56:37;12.50;99.90
9837;DHT22;4957;51.412;6.724;2024-03-07T12:59:03;12.50;99.90
9837;DHT22;4957;51.412;6.724;2024-03-07T13:01:30;12.50;99.90
9837;DHT22;4957;51.412;6.724;2024-03-07T13:03:58;12.50;99.90
9837;DHT22;4957;51.412;6.724;2024-03-07T13:06:24;12.50;99.90
9837;DHT22;4957;51.412;6.724;2024-03-07T13:08:55;12.60;99.90
9837;DHT22;4957;51.412;6.724;2024-03-07T13:11:24;12.50;99.90
9837;DHT22;4957;51.412;6.724;2024-03-07T13:13:53;12.50;99.90
9837;DHT22;4957;51.412;6.724;2024-03-07T13:16:19;12.60;99.90
9837;DHT22;4957;51.412;6.724;2024-03-07T13:18:44;12.60;99.90
9837;DHT22;4957;51.412;6.724;2024-03-07T13:21:11;12.60;99.90
9837;DHT22;4957;51.412;6.724;2024-03-07T13:23:43;12.50;99.90
9837;DHT22;4957;51.412;6.724;2024-03-07T13:26:09;12.60;99.90
9837;DHT22;4957;51.412;6.724;2024-03-07T13:28:42;12.60;99.90
9837;DHT22;4957;51.412;6.724;2024-03-07T13:31:10;12.60;99.90
9837;DHT22;4957;51.412;6.724;2024-03-07T13:33:43;12.60;99.90
9837;DHT22;4957;51.412;6.724;2024-03-07T13:36:09;12.60;99.90
9837;DHT22;4957;51.412;6.724;2024-03-07T13:38:35;12.60;99.90
9837;DHT22;4957;51.412;6.724;2024-03-07T13:41:02;12.60;99.90
9837;DHT22;4957;51.412;6.724;2024-03-07T13:43:31;12.60;99.90
9837;DHT22;4957;51.412;6.724;2024-03-07T13:45:59;12.70;99.90
9837;DHT22;4957;51.412;6.724;2024-03-07T13:48:25;12.70;99.90
9837;DHT22;4957;51.412;6.724;2024-03-07T13:50:51;12.70;99.90
9837;DHT22;4957;51.412;6.724;2024-03-07T13:53:20;12.80;99.90
9837;DHT22;4957;51.412;6.724;2024-03-07T14:12:16;12.80;99.90
9837;DHT22;4957;51.412;6.724;2024-03-07T14:23:42;12.70;99.90
9837;DHT22;4957;51.412;6.724;2024-03-07T14:29:12;12.70;99.90
9837;DHT22;4957;51.412;6.724;2024-03-07T14:31:41;12.70;99.90
9837;DHT22;4957;51.412;6.724;2024-03-07T14:34:24;12.70;99.90
9837;DHT22;4957;51.412;6.724;2024-03-07T14:37:09;12.70;99.90
9837;DHT22;4957;51.412;6.724;2024-03-07T14:39:35;12.70;99.90
9837;DHT22;4957;51.412;6.724;2024-03-07T14:42:04;12.60;99.90
9837;DHT22;4957;51.412;6.724;2024-03-07T14:44:37;12.60;99.90
9837;DHT22;4957;51.412;6.724;2024-03-07T14:47:07;12.60;99.90
9837;DHT22;4957;51.412;6.724;2024-03-07T14:49:37;12.60;99.90
9837;DHT22;4957;51.412;6.724;2024-03-07T14:52:03;12.60;99.90
9837;DHT22;4957;51.412;6.724;2024-03-07T14:54:29;12.60;99.90
9837;DHT22;4957;51.412;6.724;2024-03-07T14:56:56;12.60;99.90
9837;DHT22;4957;51.412;6.724;2024-03-07T14:59:22;12.50;99.90
9837;DHT22;4957;51.412;6.724;2024-03-07T15:01:47;12.50;99.50
9837;DHT22;4957;51.412;6.724;2024-03-07T15:04:14;12.50;99.30
9837;DHT22;4957;51.412;6.724;2024-03-07T15:06:40;12.50;99.30
9837;DHT22;4957;51.412;6.724;2024-03-07T15:09:07;12.50;99.50
9837;DHT22;4957;51.412;6.724;2024-03-07T15:11:36;12.40;99.90
9837;DHT22;4957;51.412;6.724;2024-03-07T15:14:03;12.40;99.50
9837;DHT22;4957;51.412;6.724;2024-03-07T15:16:35;12.40;99.00
9837;DHT22;4957;51.412;6.724;2024-03-07T15:19:06;12.40;99.50
9837;DHT22;4957;51.412;6.724;2024-03-07T15:21:36;12.40;99.30
9837;DHT22;4957;51.412;6.724;2024-03-07T15:24:04;12.40;99.00
9837;DHT22;4957;51.412;6.724;2024-03-07T15:26:30;12.40;98.90
9837;DHT22;4957;51.412;6.724;2024-03-07T15:29:00;12.30;98.60
9837;DHT22;4957;51.412;6.724;2024-03-07T15:31:26;12.30;98.40
9837;DHT22;4957;51.412;6.724;2024-03-07T15:33:52;12.30;98.20
9837;DHT22;4957;51.412;6.724;2024-03-07T15:36:18;12.30;98.20
9837;DHT22;4957;51.412;6.724;2024-03-07T15:38:44;12.30;98.30
9837;DHT22;4957;51.412;6.724;2024-03-07T15:41:10;12.30;99.20
9837;DHT22;4957;51.412;6.724;2024-03-07T15:43:40;12.20;98.20
9837;DHT22;4957;51.412;6.724;2024-03-07T15:46:10;12.20;98.10
9837;DHT22;4957;51.412;6.724;2024-03-07T15:48:37;12.20;98.20
9837;DHT22;4957;51.412;6.724;2024-03-07T15:51:03;12.20;97.80
9837;DHT22;4957;51.412;6.724;2024-03-07T15:53:31;12.20;97.50
9837;DHT22;4957;51.412;6.724;2024-03-07T15:56:02;12.20;97.60
9837;DHT22;4957;51.412;6.724;2024-03-07T15:58:28;12.20;97.50
9837;DHT22;4957;51.412;6.724;2024-03-07T16:00:54;12.10;97.10
9837;DHT22;4957;51.412;6.724;2024-03-07T16:03:20;12.10;97.20
9837;DHT22;4957;51.412;6.724;2024-03-07T16:05:48;12.10;97.30
9837;DHT22;4957;51.412;6.724;2024-03-07T16:08:15;12.10;97.30
9837;DHT22;4957;51.412;6.724;2024-03-07T16:10:43;12.00;97.50
9837;DHT22;4957;51.412;6.724;2024-03-07T16:13:11;12.00;96.70
9837;DHT22;4957;51.412;6.724;2024-03-07T16:15:42;11.90;95.90
9837;DHT22;4957;51.412;6.724;2024-03-07T16:18:11;11.90;96.30
9837;DHT22;4957;51.412;6.724;2024-03-07T16:20:37;11.80;95.70
9837;DHT22;4957;51.412;6.724;2024-03-07T16:23:04;11.80;96.00
9837;DHT22;4957;51.412;6.724;2024-03-07T16:25:31;11.70;96.50
9837;DHT22;4957;51.412;6.724;2024-03-07T16:27:57;11.70;96.40
9837;DHT22;4957;51.412;6.724;2024-03-07T16:30:25;11.70;96.30
9837;DHT22;4957;51.412;6.724;2024-03-07T16:32:52;11.60;96.30
9837;DHT22;4957;51.412;6.724;2024-03-07T16:35:29;11.60;96.30
9837;DHT22;4957;51.412;6.724;2024-03-07T16:37:57;11.60;96.30
9837;DHT22;4957;51.412;6.724;2024-03-07T16:40:24;11.60;96.60
9837;DHT22;4957;51.412;6.724;2024-03-07T16:42:57;11.60;96.70
9837;DHT22;4957;51.412;6.724;2024-03-07T16:45:28;11.50;97.00
9837;DHT22;4957;51.412;6.724;2024-03-07T16:47:54;11.50;96.70
9837;DHT22;4957;51.412;6.724;2024-03-07T16:50:26;11.50;96.60
9837;DHT22;4957;51.412;6.724;2024-03-07T16:52:56;11.50;96.90
9837;DHT22;4957;51.412;6.724;2024-03-07T16:55:23;11.50;96.90